Terminal Aerodrome Forecast
Issued by NWS Louisville, KY

Home | Current Version | Previous Version | Text Only | Print | Product List | Glossary On
Versions: 1 2 3 4 5 6 7 8 9 10 11 12 13 14 15 16 17
656
FTUS43 KLMK 270520
TAFSDF
TAF
KSDF 270520Z 2706/2812 VRB03KT P6SM SCT200
     FM271600 28009G18KT P6SM SCT050
     FM272200 26007KT P6SM SKC=

USA.gov is the U.S. government's official web portal to all federal, state and local government web resources and services.